sensor_id;sensor_type;location;lat;lon;timestamp;P1;durP1;ratioP1;P2;durP2;ratioP2
42704;SDS011;28342;42.594;23.414;2022-12-16T00:00:45;157.02;;;76.82;;
42704;SDS011;28342;42.594;23.414;2022-12-16T00:03:10;162.40;;;77.45;;
42704;SDS011;28342;42.594;23.414;2022-12-16T00:05:36;163.63;;;81.68;;
42704;SDS011;28342;42.594;23.414;2022-12-16T00:08:02;169.07;;;86.43;;
42704;SDS011;28342;42.594;23.414;2022-12-16T00:10:28;197.25;;;99.97;;
42704;SDS011;28342;42.594;23.414;2022-12-16T00:13:13;186.73;;;95.00;;
42704;SDS011;28342;42.594;23.414;2022-12-16T00:15:39;172.13;;;87.75;;
42704;SDS011;28342;42.594;23.414;2022-12-16T00:18:04;149.30;;;78.00;;
42704;SDS011;28342;42.594;23.414;2022-12-16T00:20:30;154.60;;;78.25;;
42704;SDS011;28342;42.594;23.414;2022-12-16T00:22:55;145.10;;;73.32;;
42704;SDS011;28342;42.594;23.414;2022-12-16T00:25:20;153.30;;;76.05;;
42704;SDS011;28342;42.594;23.414;2022-12-16T00:27:46;145.65;;;71.45;;
42704;SDS011;28342;42.594;23.414;2022-12-16T00:30:11;127.25;;;61.22;;
42704;SDS011;28342;42.594;23.414;2022-12-16T00:32:37;126.88;;;60.45;;
42704;SDS011;28342;42.594;23.414;2022-12-16T00:35:02;124.38;;;58.20;;
42704;SDS011;28342;42.594;23.414;2022-12-16T00:37:28;127.47;;;63.67;;
42704;SDS011;28342;42.594;23.414;2022-12-16T00:39:53;156.80;;;73.90;;
42704;SDS011;28342;42.594;23.414;2022-12-16T00:42:19;225.93;;;87.18;;
42704;SDS011;28342;42.594;23.414;2022-12-16T00:44:44;199.80;;;85.97;;
42704;SDS011;28342;42.594;23.414;2022-12-16T00:47:10;201.50;;;88.60;;
42704;SDS011;28342;42.594;23.414;2022-12-16T00:49:35;370.88;;;102.70;;
42704;SDS011;28342;42.594;23.414;2022-12-16T00:52:01;249.35;;;93.18;;
42704;SDS011;28342;42.594;23.414;2022-12-16T00:54:26;185.20;;;83.30;;
42704;SDS011;28342;42.594;23.414;2022-12-16T00:56:51;234.45;;;91.95;;
42704;SDS011;28342;42.594;23.414;2022-12-16T00:59:17;242.52;;;89.93;;
42704;SDS011;28342;42.594;23.414;2022-12-16T01:01:42;423.58;;;98.63;;
42704;SDS011;28342;42.594;23.414;2022-12-16T01:04:08;296.67;;;89.15;;
42704;SDS011;28342;42.594;23.414;2022-12-16T01:06:33;414.52;;;100.15;;
42704;SDS011;28342;42.594;23.414;2022-12-16T01:08:58;294.98;;;89.45;;
42704;SDS011;28342;42.594;23.414;2022-12-16T01:11:24;552.47;;;108.13;;
42704;SDS011;28342;42.594;23.414;2022-12-16T01:13:49;387.92;;;99.32;;
42704;SDS011;28342;42.594;23.414;2022-12-16T01:16:15;474.25;;;100.22;;
42704;SDS011;28342;42.594;23.414;2022-12-16T01:18:41;368.40;;;97.70;;
42704;SDS011;28342;42.594;23.414;2022-12-16T01:21:07;412.25;;;91.80;;
42704;SDS011;28342;42.594;23.414;2022-12-16T01:23:36;519.20;;;105.47;;
42704;SDS011;28342;42.594;23.414;2022-12-16T01:26:01;710.88;;;118.32;;
42704;SDS011;28342;42.594;23.414;2022-12-16T01:28:27;626.00;;;107.57;;
42704;SDS011;28342;42.594;23.414;2022-12-16T01:30:54;446.48;;;101.65;;
42704;SDS011;28342;42.594;23.414;2022-12-16T01:33:21;340.10;;;93.00;;
42704;SDS011;28342;42.594;23.414;2022-12-16T01:35:47;362.85;;;88.93;;
42704;SDS011;28342;42.594;23.414;2022-12-16T01:38:12;279.00;;;82.25;;
42704;SDS011;28342;42.594;23.414;2022-12-16T01:40:38;319.05;;;88.97;;
42704;SDS011;28342;42.594;23.414;2022-12-16T01:43:08;843.10;;;125.72;;
42704;SDS011;28342;42.594;23.414;2022-12-16T01:45:37;697.38;;;111.68;;
42704;SDS011;28342;42.594;23.414;2022-12-16T01:48:12;679.65;;;109.90;;
42704;SDS011;28342;42.594;23.414;2022-12-16T01:50:46;399.75;;;86.20;;
42704;SDS011;28342;42.594;23.414;2022-12-16T01:53:14;314.85;;;81.18;;
42704;SDS011;28342;42.594;23.414;2022-12-16T01:55:41;291.05;;;81.60;;
42704;SDS011;28342;42.594;23.414;2022-12-16T01:58:17;663.03;;;104.35;;
42704;SDS011;28342;42.594;23.414;2022-12-16T02:00:46;379.05;;;87.88;;
42704;SDS011;28342;42.594;23.414;2022-12-16T02:03:12;364.92;;;89.68;;
42704;SDS011;28342;42.594;23.414;2022-12-16T02:05:39;346.48;;;85.13;;
42704;SDS011;28342;42.594;23.414;2022-12-16T02:08:11;657.50;;;107.80;;
42704;SDS011;28342;42.594;23.414;2022-12-16T02:16:05;234.85;;;74.50;;
42704;SDS011;28342;42.594;23.414;2022-12-16T02:21:44;412.95;;;88.65;;
42704;SDS011;28342;42.594;23.414;2022-12-16T02:29:50;320.13;;;80.32;;
42704;SDS011;28342;42.594;23.414;2022-12-16T02:33:13;199.50;;;69.63;;
42704;SDS011;28342;42.594;23.414;2022-12-16T02:38:29;232.55;;;70.53;;
42704;SDS011;28342;42.594;23.414;2022-12-16T02:46:32;257.45;;;71.20;;
42704;SDS011;28342;42.594;23.414;2022-12-16T02:49:05;183.25;;;70.28;;
42704;SDS011;28342;42.594;23.414;2022-12-16T02:51:50;158.32;;;65.45;;
42704;SDS011;28342;42.594;23.414;2022-12-16T02:54:16;218.35;;;76.70;;
42704;SDS011;28342;42.594;23.414;2022-12-16T02:59:48;135.43;;;59.33;;
42704;SDS011;28342;42.594;23.414;2022-12-16T03:08:18;115.47;;;51.70;;
42704;SDS011;28342;42.594;23.414;2022-12-16T03:10:50;101.35;;;48.15;;
42704;SDS011;28342;42.594;23.414;2022-12-16T03:13:20;102.40;;;51.25;;
42704;SDS011;28342;42.594;23.414;2022-12-16T03:15:47;128.43;;;61.47;;
42704;SDS011;28342;42.594;23.414;2022-12-16T03:18:17;121.30;;;57.85;;
42704;SDS011;28342;42.594;23.414;2022-12-16T03:20:54;107.32;;;52.15;;
42704;SDS011;28342;42.594;23.414;2022-12-16T03:23:26;125.43;;;53.58;;
42704;SDS011;28342;42.594;23.414;2022-12-16T03:25:58;105.15;;;49.08;;
42704;SDS011;28342;42.594;23.414;2022-12-16T03:28:44;105.65;;;48.83;;
42704;SDS011;28342;42.594;23.414;2022-12-16T03:31:18;132.43;;;55.88;;
42704;SDS011;28342;42.594;23.414;2022-12-16T03:34:03;135.07;;;55.10;;
42704;SDS011;28342;42.594;23.414;2022-12-16T03:36:37;150.88;;;57.17;;
42704;SDS011;28342;42.594;23.414;2022-12-16T03:39:05;106.15;;;50.00;;
42704;SDS011;28342;42.594;23.414;2022-12-16T03:41:32;124.30;;;53.38;;
42704;SDS011;28342;42.594;23.414;2022-12-16T03:43:59;148.10;;;56.67;;
42704;SDS011;28342;42.594;23.414;2022-12-16T03:46:25;142.95;;;57.13;;
42704;SDS011;28342;42.594;23.414;2022-12-16T03:48:51;157.40;;;61.33;;
42704;SDS011;28342;42.594;23.414;2022-12-16T03:51:17;186.45;;;65.40;;
42704;SDS011;28342;42.594;23.414;2022-12-16T03:53:43;144.57;;;59.10;;
42704;SDS011;28342;42.594;23.414;2022-12-16T03:56:09;138.02;;;60.30;;
42704;SDS011;28342;42.594;23.414;2022-12-16T03:58:36;272.83;;;89.53;;
42704;SDS011;28342;42.594;23.414;2022-12-16T04:01:04;242.82;;;75.95;;
42704;SDS011;28342;42.594;23.414;2022-12-16T04:03:33;148.75;;;59.15;;
42704;SDS011;28342;42.594;23.414;2022-12-16T04:05:59;223.85;;;56.63;;
42704;SDS011;28342;42.594;23.414;2022-12-16T04:08:25;482.00;;;76.55;;
42704;SDS011;28342;42.594;23.414;2022-12-16T04:10:51;327.63;;;71.32;;
42704;SDS011;28342;42.594;23.414;2022-12-16T04:13:35;448.83;;;72.07;;
42704;SDS011;28342;42.594;23.414;2022-12-16T04:16:19;501.75;;;76.95;;
42704;SDS011;28342;42.594;23.414;2022-12-16T04:19:03;695.42;;;94.32;;
42704;SDS011;28342;42.594;23.414;2022-12-16T04:24:32;230.43;;;62.65;;
42704;SDS011;28342;42.594;23.414;2022-12-16T04:26:59;247.35;;;62.28;;
42704;SDS011;28342;42.594;23.414;2022-12-16T04:29:43;578.15;;;84.35;;
42704;SDS011;28342;42.594;23.414;2022-12-16T04:32:27;214.15;;;63.97;;
42704;SDS011;28342;42.594;23.414;2022-12-16T04:35:13;391.83;;;74.70;;
42704;SDS011;28342;42.594;23.414;2022-12-16T04:40:41;193.57;;;57.40;;
42704;SDS011;28342;42.594;23.414;2022-12-16T04:43:26;170.45;;;61.72;;
42704;SDS011;28342;42.594;23.414;2022-12-16T04:46:10;310.02;;;72.82;;
42704;SDS011;28342;42.594;23.414;2022-12-16T04:48:58;198.93;;;63.88;;
42704;SDS011;28342;42.594;23.414;2022-12-16T04:51:42;169.75;;;60.63;;
42704;SDS011;28342;42.594;23.414;2022-12-16T04:54:26;251.57;;;67.70;;
42704;SDS011;28342;42.594;23.414;2022-12-16T04:57:10;200.57;;;58.63;;
42704;SDS011;28342;42.594;23.414;2022-12-16T04:59:54;279.23;;;65.88;;
42704;SDS011;28342;42.594;23.414;2022-12-16T05:05:22;304.92;;;71.90;;
42704;SDS011;28342;42.594;23.414;2022-12-16T05:08:06;212.65;;;66.82;;
42704;SDS011;28342;42.594;23.414;2022-12-16T05:10:50;210.00;;;61.28;;
42704;SDS011;28342;42.594;23.414;2022-12-16T05:13:34;247.13;;;57.72;;
42704;SDS011;28342;42.594;23.414;2022-12-16T05:16:18;225.23;;;64.40;;
42704;SDS011;28342;42.594;23.414;2022-12-16T05:19:02;300.20;;;63.70;;
42704;SDS011;28342;42.594;23.414;2022-12-16T05:24:31;543.50;;;76.20;;
42704;SDS011;28342;42.594;23.414;2022-12-16T05:27:15;264.25;;;65.88;;
42704;SDS011;28342;42.594;23.414;2022-12-16T05:29:59;194.95;;;54.08;;
42704;SDS011;28342;42.594;23.414;2022-12-16T05:35:27;175.70;;;50.67;;
42704;SDS011;28342;42.594;23.414;2022-12-16T05:38:10;146.85;;;63.85;;
42704;SDS011;28342;42.594;23.414;2022-12-16T05:40:54;139.32;;;57.95;;
42704;SDS011;28342;42.594;23.414;2022-12-16T05:46:22;131.57;;;55.80;;
42704;SDS011;28342;42.594;23.414;2022-12-16T05:49:06;125.45;;;56.53;;
42704;SDS011;28342;42.594;23.414;2022-12-16T05:51:50;159.98;;;57.88;;
42704;SDS011;28342;42.594;23.414;2022-12-16T05:54:34;139.55;;;57.03;;
42704;SDS011;28342;42.594;23.414;2022-12-16T06:00:03;177.10;;;62.97;;
42704;SDS011;28342;42.594;23.414;2022-12-16T06:02:48;234.27;;;71.40;;
42704;SDS011;28342;42.594;23.414;2022-12-16T06:05:32;170.55;;;62.55;;
42704;SDS011;28342;42.594;23.414;2022-12-16T06:08:16;225.57;;;68.65;;
42704;SDS011;28342;42.594;23.414;2022-12-16T06:11:00;233.73;;;69.43;;
42704;SDS011;28342;42.594;23.414;2022-12-16T06:16:28;127.72;;;53.47;;
42704;SDS011;28342;42.594;23.414;2022-12-16T06:19:12;188.88;;;68.03;;
42704;SDS011;28342;42.594;23.414;2022-12-16T06:24:40;259.20;;;71.90;;
42704;SDS011;28342;42.594;23.414;2022-12-16T06:30:08;528.47;;;83.53;;
42704;SDS011;28342;42.594;23.414;2022-12-16T06:32:53;370.45;;;71.15;;
42704;SDS011;28342;42.594;23.414;2022-12-16T06:38:21;293.48;;;69.55;;
42704;SDS011;28342;42.594;23.414;2022-12-16T06:41:05;293.95;;;75.47;;
42704;SDS011;28342;42.594;23.414;2022-12-16T06:46:43;196.38;;;70.53;;
42704;SDS011;28342;42.594;23.414;2022-12-16T06:49:27;225.05;;;70.57;;
42704;SDS011;28342;42.594;23.414;2022-12-16T06:54:56;212.35;;;70.80;;
42704;SDS011;28342;42.594;23.414;2022-12-16T07:00:24;498.83;;;90.18;;
42704;SDS011;28342;42.594;23.414;2022-12-16T07:03:08;389.90;;;85.88;;
42704;SDS011;28342;42.594;23.414;2022-12-16T07:05:53;232.15;;;74.05;;
42704;SDS011;28342;42.594;23.414;2022-12-16T07:08:38;597.63;;;96.13;;
42704;SDS011;28342;42.594;23.414;2022-12-16T07:11:22;437.10;;;89.38;;
42704;SDS011;28342;42.594;23.414;2022-12-16T07:14:06;258.85;;;77.82;;
42704;SDS011;28342;42.594;23.414;2022-12-16T07:19:34;376.25;;;92.05;;
42704;SDS011;28342;42.594;23.414;2022-12-16T07:22:18;272.42;;;83.07;;
42704;SDS011;28342;42.594;23.414;2022-12-16T07:25:02;169.98;;;68.30;;
42704;SDS011;28342;42.594;23.414;2022-12-16T07:27:47;290.95;;;82.68;;
42704;SDS011;28342;42.594;23.414;2022-12-16T07:30:31;240.73;;;76.68;;
42704;SDS011;28342;42.594;23.414;2022-12-16T07:35:59;443.55;;;90.47;;
42704;SDS011;28342;42.594;23.414;2022-12-16T07:38:43;245.32;;;77.68;;
42704;SDS011;28342;42.594;23.414;2022-12-16T07:44:11;348.83;;;85.85;;
42704;SDS011;28342;42.594;23.414;2022-12-16T07:46:55;163.85;;;60.83;;
42704;SDS011;28342;42.594;23.414;2022-12-16T07:49:39;326.80;;;83.70;;
42704;SDS011;28342;42.594;23.414;2022-12-16T07:52:23;229.02;;;76.05;;
42704;SDS011;28342;42.594;23.414;2022-12-16T07:55:07;280.35;;;81.47;;
42704;SDS011;28342;42.594;23.414;2022-12-16T07:57:51;171.98;;;69.75;;
42704;SDS011;28342;42.594;23.414;2022-12-16T08:00:36;135.73;;;56.72;;
42704;SDS011;28342;42.594;23.414;2022-12-16T08:06:04;166.87;;;61.90;;
42704;SDS011;28342;42.594;23.414;2022-12-16T08:08:48;168.77;;;66.20;;
42704;SDS011;28342;42.594;23.414;2022-12-16T08:11:33;176.15;;;68.32;;
42704;SDS011;28342;42.594;23.414;2022-12-16T08:14:16;169.45;;;69.00;;
42704;SDS011;28342;42.594;23.414;2022-12-16T08:19:45;174.93;;;66.70;;
42704;SDS011;28342;42.594;23.414;2022-12-16T08:25:13;197.63;;;68.30;;
42704;SDS011;28342;42.594;23.414;2022-12-16T08:30:41;317.17;;;83.38;;
42704;SDS011;28342;42.594;23.414;2022-12-16T08:33:25;237.00;;;81.68;;
42704;SDS011;28342;42.594;23.414;2022-12-16T08:36:09;220.70;;;75.60;;
42704;SDS011;28342;42.594;23.414;2022-12-16T08:38:53;280.52;;;77.57;;
42704;SDS011;28342;42.594;23.414;2022-12-16T08:41:37;312.35;;;77.47;;
42704;SDS011;28342;42.594;23.414;2022-12-16T08:44:21;217.63;;;73.30;;
42704;SDS011;28342;42.594;23.414;2022-12-16T08:47:06;261.63;;;80.80;;
42704;SDS011;28342;42.594;23.414;2022-12-16T08:49:49;239.43;;;78.22;;
42704;SDS011;28342;42.594;23.414;2022-12-16T08:52:34;283.75;;;80.85;;
42704;SDS011;28342;42.594;23.414;2022-12-16T08:55:18;231.77;;;73.70;;
42704;SDS011;28342;42.594;23.414;2022-12-16T08:58:02;264.88;;;78.00;;
42704;SDS011;28342;42.594;23.414;2022-12-16T09:00:46;248.65;;;78.45;;
42704;SDS011;28342;42.594;23.414;2022-12-16T09:03:30;260.33;;;79.60;;
42704;SDS011;28342;42.594;23.414;2022-12-16T09:06:14;257.98;;;82.57;;
42704;SDS011;28342;42.594;23.414;2022-12-16T09:08:58;185.57;;;69.80;;
42704;SDS011;28342;42.594;23.414;2022-12-16T09:11:42;173.00;;;70.22;;
42704;SDS011;28342;42.594;23.414;2022-12-16T09:14:26;165.00;;;66.47;;
42704;SDS011;28342;42.594;23.414;2022-12-16T09:17:10;156.82;;;63.53;;
42704;SDS011;28342;42.594;23.414;2022-12-16T09:19:54;157.50;;;72.65;;
42704;SDS011;28342;42.594;23.414;2022-12-16T09:22:39;157.15;;;74.00;;
42704;SDS011;28342;42.594;23.414;2022-12-16T09:25:23;93.13;;;47.78;;
42704;SDS011;28342;42.594;23.414;2022-12-16T09:30:51;56.70;;;30.15;;
42704;SDS011;28342;42.594;23.414;2022-12-16T09:33:35;40.17;;;22.23;;
42704;SDS011;28342;42.594;23.414;2022-12-16T09:36:19;24.88;;;15.02;;
42704;SDS011;28342;42.594;23.414;2022-12-16T09:39:03;19.00;;;12.98;;
42704;SDS011;28342;42.594;23.414;2022-12-16T09:42:07;19.50;;;12.05;;
42704;SDS011;28342;42.594;23.414;2022-12-16T09:48:09;18.13;;;10.88;;
42704;SDS011;28342;42.594;23.414;2022-12-16T09:50:57;14.85;;;10.18;;
42704;SDS011;28342;42.594;23.414;2022-12-16T09:53:47;14.93;;;10.50;;
42704;SDS011;28342;42.594;23.414;2022-12-16T09:56:34;15.63;;;10.23;;
42704;SDS011;28342;42.594;23.414;2022-12-16T10:02:11;19.33;;;10.82;;
42704;SDS011;28342;42.594;23.414;2022-12-16T10:04:57;16.27;;;11.05;;
42704;SDS011;28342;42.594;23.414;2022-12-16T10:07:44;15.20;;;9.90;;
42704;SDS011;28342;42.594;23.414;2022-12-16T10:13:31;15.20;;;10.57;;
42704;SDS011;28342;42.594;23.414;2022-12-16T10:16:38;15.07;;;10.20;;
42704;SDS011;28342;42.594;23.414;2022-12-16T10:19:32;16.30;;;10.63;;
42704;SDS011;28342;42.594;23.414;2022-12-16T10:22:36;16.38;;;10.63;;
42704;SDS011;28342;42.594;23.414;2022-12-16T10:25:49;27.73;;;16.60;;
42704;SDS011;28342;42.594;23.414;2022-12-16T10:28:51;17.85;;;12.25;;
42704;SDS011;28342;42.594;23.414;2022-12-16T10:31:43;20.88;;;10.55;;
42704;SDS011;28342;42.594;23.414;2022-12-16T10:34:27;64.82;;;34.00;;
42704;SDS011;28342;42.594;23.414;2022-12-16T10:37:15;27.25;;;16.48;;
42704;SDS011;28342;42.594;23.414;2022-12-16T10:40:12;21.55;;;13.68;;
42704;SDS011;28342;42.594;23.414;2022-12-16T10:43:04;18.10;;;12.20;;
42704;SDS011;28342;42.594;23.414;2022-12-16T10:45:56;15.02;;;10.02;;
42704;SDS011;28342;42.594;23.414;2022-12-16T10:48:42;14.68;;;9.40;;
42704;SDS011;28342;42.594;23.414;2022-12-16T10:57:01;15.18;;;9.93;;
42704;SDS011;28342;42.594;23.414;2022-12-16T11:00:07;14.27;;;10.35;;
42704;SDS011;28342;42.594;23.414;2022-12-16T11:03:15;14.95;;;9.85;;
42704;SDS011;28342;42.594;23.414;2022-12-16T11:06:04;14.93;;;9.60;;
42704;SDS011;28342;42.594;23.414;2022-12-16T11:08:49;16.42;;;9.80;;
42704;SDS011;28342;42.594;23.414;2022-12-16T11:14:27;15.52;;;10.27;;
42704;SDS011;28342;42.594;23.414;2022-12-16T11:17:22;16.85;;;10.50;;
42704;SDS011;28342;42.594;23.414;2022-12-16T11:23:05;16.90;;;9.98;;
42704;SDS011;28342;42.594;23.414;2022-12-16T11:26:03;13.68;;;9.27;;
42704;SDS011;28342;42.594;23.414;2022-12-16T11:31:55;15.25;;;9.43;;
42704;SDS011;28342;42.594;23.414;2022-12-16T11:34:43;17.15;;;9.75;;
42704;SDS011;28342;42.594;23.414;2022-12-16T11:37:32;16.75;;;11.50;;
42704;SDS011;28342;42.594;23.414;2022-12-16T11:40:18;15.05;;;9.40;;
42704;SDS011;28342;42.594;23.414;2022-12-16T11:43:02;17.58;;;11.55;;
42704;SDS011;28342;42.594;23.414;2022-12-16T11:45:48;12.13;;;9.02;;
42704;SDS011;28342;42.594;23.414;2022-12-16T11:48:42;10.60;;;8.50;;
42704;SDS011;28342;42.594;23.414;2022-12-16T11:51:31;13.00;;;8.73;;
42704;SDS011;28342;42.594;23.414;2022-12-16T11:54:24;13.70;;;9.43;;
42704;SDS011;28342;42.594;23.414;2022-12-16T11:57:22;14.23;;;9.32;;
42704;SDS011;28342;42.594;23.414;2022-12-16T12:00:14;13.70;;;9.18;;
42704;SDS011;28342;42.594;23.414;2022-12-16T12:03:04;11.73;;;8.27;;
42704;SDS011;28342;42.594;23.414;2022-12-16T12:08:59;12.65;;;8.43;;
42704;SDS011;28342;42.594;23.414;2022-12-16T12:14:43;12.18;;;7.78;;
42704;SDS011;28342;42.594;23.414;2022-12-16T12:20:25;12.88;;;9.30;;
42704;SDS011;28342;42.594;23.414;2022-12-16T12:23:21;11.80;;;9.05;;
42704;SDS011;28342;42.594;23.414;2022-12-16T12:26:23;12.10;;;8.80;;
42704;SDS011;28342;42.594;23.414;2022-12-16T12:32:30;14.07;;;8.65;;
42704;SDS011;28342;42.594;23.414;2022-12-16T12:41:20;13.30;;;8.93;;
42704;SDS011;28342;42.594;23.414;2022-12-16T12:47:01;13.45;;;9.13;;
42704;SDS011;28342;42.594;23.414;2022-12-16T12:59:51;15.77;;;7.93;;
42704;SDS011;28342;42.594;23.414;2022-12-16T13:02:22;11.82;;;7.95;;
42704;SDS011;28342;42.594;23.414;2022-12-16T13:05:10;13.23;;;8.10;;
42704;SDS011;28342;42.594;23.414;2022-12-16T13:08:29;13.10;;;9.30;;
42704;SDS011;28342;42.594;23.414;2022-12-16T13:11:18;14.82;;;9.93;;
42704;SDS011;28342;42.594;23.414;2022-12-16T13:14:24;12.93;;;8.98;;
42704;SDS011;28342;42.594;23.414;2022-12-16T13:17:22;14.88;;;10.00;;
42704;SDS011;28342;42.594;23.414;2022-12-16T13:26:16;19.98;;;12.63;;
42704;SDS011;28342;42.594;23.414;2022-12-16T13:32:16;16.20;;;9.25;;
42704;SDS011;28342;42.594;23.414;2022-12-16T13:40:58;14.40;;;8.57;;
42704;SDS011;28342;42.594;23.414;2022-12-16T13:43:50;13.30;;;8.20;;
42704;SDS011;28342;42.594;23.414;2022-12-16T13:53:01;21.63;;;10.68;;
42704;SDS011;28342;42.594;23.414;2022-12-16T13:55:29;16.13;;;8.20;;
42704;SDS011;28342;42.594;23.414;2022-12-16T13:58:20;13.35;;;7.28;;
42704;SDS011;28342;42.594;23.414;2022-12-16T14:01:40;12.63;;;8.13;;
42704;SDS011;28342;42.594;23.414;2022-12-16T14:04:36;16.05;;;9.32;;
42704;SDS011;28342;42.594;23.414;2022-12-16T14:07:27;13.88;;;9.13;;
42704;SDS011;28342;42.594;23.414;2022-12-16T14:13:26;11.68;;;7.55;;
42704;SDS011;28342;42.594;23.414;2022-12-16T14:19:48;14.32;;;9.35;;
42704;SDS011;28342;42.594;23.414;2022-12-16T14:22:53;16.55;;;9.25;;
42704;SDS011;28342;42.594;23.414;2022-12-16T14:26:03;18.25;;;9.68;;
42704;SDS011;28342;42.594;23.414;2022-12-16T14:28:53;18.17;;;9.43;;
42704;SDS011;28342;42.594;23.414;2022-12-16T14:31:38;15.73;;;10.43;;
42704;SDS011;28342;42.594;23.414;2022-12-16T14:34:25;19.13;;;9.35;;
42704;SDS011;28342;42.594;23.414;2022-12-16T14:37:13;21.13;;;12.95;;
42704;SDS011;28342;42.594;23.414;2022-12-16T14:40:19;13.43;;;9.20;;
42704;SDS011;28342;42.594;23.414;2022-12-16T14:43:12;19.40;;;12.32;;
42704;SDS011;28342;42.594;23.414;2022-12-16T14:45:56;22.42;;;10.77;;
42704;SDS011;28342;42.594;23.414;2022-12-16T14:48:40;16.98;;;11.45;;
42704;SDS011;28342;42.594;23.414;2022-12-16T14:54:22;22.00;;;12.68;;
42704;SDS011;28342;42.594;23.414;2022-12-16T14:57:20;15.90;;;9.95;;
42704;SDS011;28342;42.594;23.414;2022-12-16T15:00:21;18.52;;;10.65;;
42704;SDS011;28342;42.594;23.414;2022-12-16T15:06:24;22.15;;;12.80;;
42704;SDS011;28342;42.594;23.414;2022-12-16T15:09:19;19.23;;;10.88;;
42704;SDS011;28342;42.594;23.414;2022-12-16T15:12:09;17.20;;;10.52;;
42704;SDS011;28342;42.594;23.414;2022-12-16T15:14:55;18.55;;;10.90;;
42704;SDS011;28342;42.594;23.414;2022-12-16T15:17:43;20.70;;;11.90;;
42704;SDS011;28342;42.594;23.414;2022-12-16T15:20:37;36.42;;;18.52;;
42704;SDS011;28342;42.594;23.414;2022-12-16T15:23:27;32.08;;;16.33;;
42704;SDS011;28342;42.594;23.414;2022-12-16T15:26:17;23.63;;;14.18;;
42704;SDS011;28342;42.594;23.414;2022-12-16T15:35:29;72.65;;;31.95;;
42704;SDS011;28342;42.594;23.414;2022-12-16T15:41:19;48.35;;;26.85;;
42704;SDS011;28342;42.594;23.414;2022-12-16T15:44:13;58.58;;;30.77;;
42704;SDS011;28342;42.594;23.414;2022-12-16T15:46:58;51.95;;;30.27;;
42704;SDS011;28342;42.594;23.414;2022-12-16T15:52:32;45.15;;;26.70;;
42704;SDS011;28342;42.594;23.414;2022-12-16T15:58:11;46.78;;;27.63;;
42704;SDS011;28342;42.594;23.414;2022-12-16T16:01:22;44.70;;;26.65;;
42704;SDS011;28342;42.594;23.414;2022-12-16T16:04:41;42.20;;;24.98;;
42704;SDS011;28342;42.594;23.414;2022-12-16T16:07:20;39.67;;;22.45;;
42704;SDS011;28342;42.594;23.414;2022-12-16T16:10:17;41.75;;;24.23;;
42704;SDS011;28342;42.594;23.414;2022-12-16T16:13:05;40.60;;;24.02;;
42704;SDS011;28342;42.594;23.414;2022-12-16T16:18:34;52.87;;;27.43;;
42704;SDS011;28342;42.594;23.414;2022-12-16T16:21:17;43.97;;;25.50;;
42704;SDS011;28342;42.594;23.414;2022-12-16T16:24:02;68.15;;;33.97;;
42704;SDS011;28342;42.594;23.414;2022-12-16T16:26:46;26.70;;;12.73;;
42704;SDS011;28342;42.594;23.414;2022-12-16T16:29:30;11.95;;;8.02;;
42704;SDS011;28342;42.594;23.414;2022-12-16T16:32:14;16.45;;;7.80;;
42704;SDS011;28342;42.594;23.414;2022-12-16T16:34:58;22.70;;;11.77;;
42704;SDS011;28342;42.594;23.414;2022-12-16T16:37:42;8.23;;;5.72;;
42704;SDS011;28342;42.594;23.414;2022-12-16T16:40:30;11.70;;;6.22;;
42704;SDS011;28342;42.594;23.414;2022-12-16T16:43:16;11.95;;;7.10;;
42704;SDS011;28342;42.594;23.414;2022-12-16T16:46:01;12.77;;;6.88;;
42704;SDS011;28342;42.594;23.414;2022-12-16T16:48:58;16.33;;;8.07;;
42704;SDS011;28342;42.594;23.414;2022-12-16T16:51:42;11.20;;;7.10;;
42704;SDS011;28342;42.594;23.414;2022-12-16T16:54:26;16.17;;;5.88;;
42704;SDS011;28342;42.594;23.414;2022-12-16T16:57:10;9.45;;;6.88;;
42704;SDS011;28342;42.594;23.414;2022-12-16T16:59:54;17.02;;;7.53;;
42704;SDS011;28342;42.594;23.414;2022-12-16T17:02:38;10.63;;;7.22;;
42704;SDS011;28342;42.594;23.414;2022-12-16T17:05:22;12.13;;;7.65;;
42704;SDS011;28342;42.594;23.414;2022-12-16T17:08:06;12.20;;;6.82;;
42704;SDS011;28342;42.594;23.414;2022-12-16T17:10:50;11.82;;;8.25;;
42704;SDS011;28342;42.594;23.414;2022-12-16T17:13:34;13.45;;;7.78;;
42704;SDS011;28342;42.594;23.414;2022-12-16T17:16:19;13.48;;;7.47;;
42704;SDS011;28342;42.594;23.414;2022-12-16T17:19:02;12.65;;;7.38;;
42704;SDS011;28342;42.594;23.414;2022-12-16T17:21:47;12.77;;;8.13;;
42704;SDS011;28342;42.594;23.414;2022-12-16T17:24:31;13.50;;;8.60;;
42704;SDS011;28342;42.594;23.414;2022-12-16T17:27:16;14.20;;;8.00;;
42704;SDS011;28342;42.594;23.414;2022-12-16T17:30:01;12.68;;;8.25;;
42704;SDS011;28342;42.594;23.414;2022-12-16T17:32:46;17.05;;;9.52;;
42704;SDS011;28342;42.594;23.414;2022-12-16T17:35:30;11.38;;;7.15;;
42704;SDS011;28342;42.594;23.414;2022-12-16T17:38:14;13.90;;;8.10;;
42704;SDS011;28342;42.594;23.414;2022-12-16T17:40:58;13.63;;;8.90;;
42704;SDS011;28342;42.594;23.414;2022-12-16T17:43:43;12.02;;;8.48;;
42704;SDS011;28342;42.594;23.414;2022-12-16T17:46:27;13.65;;;9.07;;
42704;SDS011;28342;42.594;23.414;2022-12-16T17:49:11;16.05;;;8.93;;
42704;SDS011;28342;42.594;23.414;2022-12-16T17:51:55;15.60;;;9.70;;
42704;SDS011;28342;42.594;23.414;2022-12-16T17:54:39;16.40;;;10.20;;
42704;SDS011;28342;42.594;23.414;2022-12-16T17:57:23;16.42;;;8.63;;
42704;SDS011;28342;42.594;23.414;2022-12-16T18:00:07;15.25;;;9.40;;
42704;SDS011;28342;42.594;23.414;2022-12-16T18:02:52;15.15;;;8.48;;
42704;SDS011;28342;42.594;23.414;2022-12-16T18:05:36;13.98;;;8.52;;
42704;SDS011;28342;42.594;23.414;2022-12-16T18:08:20;15.23;;;8.98;;
42704;SDS011;28342;42.594;23.414;2022-12-16T18:11:04;15.30;;;9.00;;
42704;SDS011;28342;42.594;23.414;2022-12-16T18:13:48;20.00;;;11.18;;
42704;SDS011;28342;42.594;23.414;2022-12-16T18:16:32;17.77;;;9.63;;
42704;SDS011;28342;42.594;23.414;2022-12-16T18:19:16;18.65;;;12.40;;
42704;SDS011;28342;42.594;23.414;2022-12-16T18:22:00;17.13;;;11.20;;
42704;SDS011;28342;42.594;23.414;2022-12-16T18:27:29;16.20;;;10.00;;
42704;SDS011;28342;42.594;23.414;2022-12-16T18:32:57;19.13;;;10.67;;
42704;SDS011;28342;42.594;23.414;2022-12-16T18:35:41;17.15;;;10.25;;
42704;SDS011;28342;42.594;23.414;2022-12-16T18:38:25;19.00;;;11.88;;
42704;SDS011;28342;42.594;23.414;2022-12-16T18:41:13;14.40;;;9.98;;
42704;SDS011;28342;42.594;23.414;2022-12-16T18:44:02;21.95;;;14.00;;
42704;SDS011;28342;42.594;23.414;2022-12-16T18:46:47;18.98;;;13.52;;
42704;SDS011;28342;42.594;23.414;2022-12-16T18:49:32;19.20;;;12.02;;
42704;SDS011;28342;42.594;23.414;2022-12-16T18:52:16;19.95;;;11.52;;
42704;SDS011;28342;42.594;23.414;2022-12-16T18:55:01;15.60;;;9.90;;
42704;SDS011;28342;42.594;23.414;2022-12-16T18:57:45;23.05;;;13.27;;